createdAt,value
2022-08-17T00:00:42.699Z,85.42
2022-08-17T00:01:51.754Z,85.11
2022-08-17T00:02:35.993Z,85.62
2022-08-17T00:03:33.885Z,86.43
2022-08-17T00:04:33.761Z,86.97
2022-08-17T00:05:33.696Z,85.92
2022-08-17T00:06:33.692Z,85.96
2022-08-17T00:07:33.642Z,86.16
2022-08-17T00:08:33.638Z,86.07
2022-08-17T00:09:33.666Z,86.36
2022-08-17T00:10:33.718Z,86.67
2022-08-17T00:11:33.633Z,86.97
2022-08-17T00:12:42.111Z,87.88
2022-08-17T00:13:33.665Z,88.43
2022-08-17T00:14:33.617Z,88.32
2022-08-17T00:15:33.580Z,88.83
2022-08-17T00:16:56.208Z,88.73
2022-08-17T00:17:33.606Z,89.43
2022-08-17T00:19:01.269Z,88.93
2022-08-17T00:19:33.493Z,88.73
2022-08-17T00:20:35.005Z,88.63
2022-08-17T00:21:57.933Z,88.02
2022-08-17T00:22:36.690Z,87.96
2022-08-17T00:23:33.513Z,88.23
2022-08-17T00:24:33.489Z,88.23
2022-08-17T00:25:33.438Z,87.41
2022-08-17T00:26:34.569Z,86.51
2022-08-17T00:27:33.497Z,87.52
2022-08-17T00:28:33.467Z,88.02
2022-08-17T00:29:33.455Z,86.10
2022-08-17T00:30:50.940Z,85.19
2022-08-17T00:31:33.421Z,86.21
2022-08-17T00:33:22.893Z,86.61
2022-08-17T00:33:33.433Z,85.90
2022-08-17T00:34:33.371Z,85.70
2022-08-17T00:35:33.417Z,86.81
2022-08-17T00:36:33.346Z,86.91
2022-08-17T00:37:33.360Z,86.30
2022-08-17T00:38:33.383Z,87.72
2022-08-17T00:39:33.463Z,87.72
2022-08-17T00:40:39.829Z,87.01
2022-08-17T00:41:33.288Z,88.23
2022-08-17T00:42:33.271Z,87.52
2022-08-17T00:43:33.317Z,88.26
2022-08-17T00:44:33.255Z,88.47
2022-08-17T00:45:33.263Z,88.97
2022-08-17T00:46:33.289Z,89.28
2022-08-17T00:47:33.266Z,89.78
2022-08-17T00:48:33.339Z,88.97
2022-08-17T00:49:33.231Z,88.97
2022-08-17T00:50:33.235Z,89.78
2022-08-17T00:51:33.234Z,90.89
2022-08-17T00:52:33.185Z,91.19
2022-08-17T00:53:33.211Z,90.69
2022-08-17T00:54:33.224Z,90.19
2022-08-17T00:55:33.274Z,90.83
2022-08-17T00:56:33.186Z,91.03
2022-08-17T00:57:33.144Z,91.14
2022-08-17T00:58:36.360Z,91.44
2022-08-17T00:59:33.127Z,92.14
2022-08-17T01:00:33.159Z,91.34
2022-08-17T01:01:33.160Z,90.12
2022-08-17T01:02:34.248Z,90.23
2022-08-17T01:03:33.115Z,90.69
2022-08-17T01:04:33.175Z,90.89
2022-08-17T01:05:33.092Z,91.19
2022-08-17T01:06:33.033Z,90.28
2022-08-17T01:07:33.027Z,89.58
2022-08-17T01:08:33.086Z,90.28
2022-08-17T01:09:33.134Z,90.08
2022-08-17T01:10:58.299Z,89.58
2022-08-17T01:11:33.063Z,89.32
2022-08-17T01:12:33.111Z,89.22
2022-08-17T01:13:39.615Z,89.32
2022-08-17T01:14:33.090Z,89.72
2022-08-17T01:15:32.988Z,90.03
2022-08-17T01:16:32.995Z,90.33
2022-08-17T01:17:32.957Z,90.33
2022-08-17T01:18:32.940Z,90.23
2022-08-17T01:19:32.914Z,89.72
2022-08-17T01:20:43.114Z,89.83
2022-08-17T01:21:32.922Z,89.52
2022-08-17T01:22:32.928Z,90.12
2022-08-17T01:23:32.878Z,90.12
2022-08-17T01:24:33.857Z,90.33
2022-08-17T01:25:32.872Z,91.03
2022-08-17T01:26:32.940Z,90.43
2022-08-17T01:27:32.798Z,90.63
2022-08-17T01:28:53.052Z,91.34
2022-08-17T01:29:32.806Z,91.34
2022-08-17T01:30:58.420Z,91.34
2022-08-17T01:31:32.820Z,92.14
2022-08-17T01:32:32.785Z,92.25
2022-08-17T01:33:32.765Z,91.74
2022-08-17T01:34:42.089Z,91.24
2022-08-17T01:35:32.774Z,91.54
2022-08-17T01:36:32.767Z,90.78
2022-08-17T01:37:32.740Z,91.34
2022-08-17T01:38:32.705Z,92.29
2022-08-17T01:39:32.712Z,92.69
2022-08-17T01:40:32.671Z,92.19
2022-08-17T01:41:32.733Z,92.40
2022-08-17T01:42:32.638Z,92.49
2022-08-17T01:43:32.678Z,92.29
2022-08-17T01:44:32.699Z,91.89
2022-08-17T01:45:32.677Z,92.19
2022-08-17T01:46:32.583Z,91.78
2022-08-17T01:47:32.612Z,91.18
2022-08-17T01:48:32.583Z,90.17
2022-08-17T01:49:32.631Z,90.07
2022-08-17T01:50:32.570Z,90.17
2022-08-17T01:51:32.707Z,90.73
2022-08-17T01:52:32.587Z,91.34
2022-08-17T01:53:32.522Z,91.64
2022-08-17T01:54:32.534Z,91.78
2022-08-17T01:55:32.519Z,91.38
2022-08-17T01:56:32.508Z,90.58
2022-08-17T01:57:32.511Z,90.58
2022-08-17T01:58:32.474Z,91.08
2022-08-17T01:59:32.468Z,90.72
2022-08-17T02:00:59.665Z,90.92
2022-08-17T02:01:32.527Z,91.83
2022-08-17T02:02:32.458Z,91.42
2022-08-17T02:03:32.467Z,90.92
2022-08-17T02:04:32.461Z,91.63
2022-08-17T02:05:32.422Z,91.32
2022-08-17T02:06:52.894Z,91.02
2022-08-17T02:07:32.394Z,90.92
2022-08-17T02:08:36.875Z,90.92
2022-08-17T02:09:32.398Z,91.22
2022-08-17T02:10:33.847Z,92.13
2022-08-17T02:11:32.441Z,91.93
2022-08-17T02:12:47.940Z,90.72
2022-08-17T02:13:32.363Z,90.41
2022-08-17T02:14:32.339Z,90.82
2022-08-17T02:15:32.323Z,91.12
2022-08-17T02:16:36.838Z,91.73
2022-08-17T02:17:32.363Z,91.53
2022-08-17T02:18:32.299Z,91.53
2022-08-17T02:19:32.316Z,91.42
2022-08-17T02:20:42.244Z,92.13
2022-08-17T02:21:32.340Z,91.42
2022-08-17T02:22:32.280Z,90.92
2022-08-17T02:23:32.199Z,91.73
2022-08-17T02:24:59.900Z,91.93
2022-08-17T02:25:32.214Z,92.84
2022-08-17T02:26:32.202Z,92.94
2022-08-17T02:27:32.251Z,92.74
2022-08-17T02:28:32.209Z,90.56
2022-08-17T02:29:32.397Z,90.45
2022-08-17T02:31:00.719Z,90.86
2022-08-17T02:31:32.243Z,91.27
2022-08-17T02:32:32.124Z,91.67
2022-08-17T02:33:41.537Z,91.57
2022-08-17T02:34:32.173Z,92.08
2022-08-17T02:35:32.100Z,91.57
2022-08-17T02:36:32.072Z,92.99
2022-08-17T02:37:32.130Z,93.59
2022-08-17T02:38:32.106Z,92.99
2022-08-17T02:39:32.241Z,93.49
2022-08-17T02:40:36.232Z,94.00
2022-08-17T02:41:32.068Z,94.00
2022-08-17T02:42:32.066Z,91.71
2022-08-17T02:43:32.067Z,91.31
2022-08-17T02:44:39.737Z,91.82
2022-08-17T02:45:32.055Z,91.61
2022-08-17T02:46:32.038Z,93.23
2022-08-17T02:47:32.046Z,93.74
2022-08-17T02:48:32.140Z,94.45
2022-08-17T02:49:31.994Z,94.24
2022-08-17T02:50:31.914Z,94.35
2022-08-17T02:51:31.993Z,93.03
2022-08-17T02:52:40.525Z,93.63
2022-08-17T02:53:35.618Z,93.54
2022-08-17T02:54:39.764Z,93.43
2022-08-17T02:55:31.877Z,93.13
2022-08-17T02:56:31.857Z,91.71
2022-08-17T02:57:31.844Z,93.54
2022-08-17T02:58:35.341Z,93.33
2022-08-17T02:59:31.870Z,93.54
2022-08-17T03:00:31.838Z,93.63
2022-08-17T03:01:31.839Z,93.43
2022-08-17T03:02:31.896Z,93.94
2022-08-17T03:03:31.861Z,93.94
2022-08-17T03:04:33.780Z,94.55
2022-08-17T03:05:31.839Z,93.43
2022-08-17T03:06:31.778Z,92.72
2022-08-17T03:07:31.759Z,91.51
2022-08-17T03:08:31.823Z,90.80
2022-08-17T03:09:31.803Z,92.22
2022-08-17T03:10:31.788Z,91.82
2022-08-17T03:11:31.734Z,92.72
2022-08-17T03:12:31.720Z,92.32
2022-08-17T03:13:31.728Z,93.94
2022-08-17T03:14:31.740Z,93.23
2022-08-17T03:15:31.669Z,92.42
2022-08-17T03:16:31.713Z,93.43
2022-08-17T03:17:31.682Z,93.54
2022-08-17T03:18:31.676Z,93.84
2022-08-17T03:19:31.635Z,92.42
2022-08-17T03:20:31.640Z,93.33
2022-08-17T03:21:31.624Z,93.54
2022-08-17T03:22:36.694Z,93.33
2022-08-17T03:23:31.633Z,93.33
2022-08-17T03:24:31.651Z,93.13
2022-08-17T03:25:31.607Z,94.19
2022-08-17T03:26:31.557Z,94.70
2022-08-17T03:27:31.546Z,94.09
2022-08-17T03:28:31.609Z,94.19
2022-08-17T03:29:31.588Z,94.19
2022-08-17T03:30:31.728Z,93.68
2022-08-17T03:31:31.597Z,93.68
2022-08-17T03:32:31.566Z,93.88
2022-08-17T03:33:31.508Z,92.87
2022-08-17T03:34:31.545Z,92.97
2022-08-17T03:35:31.494Z,94.49
2022-08-17T03:36:31.512Z,93.99
2022-08-17T03:37:31.421Z,94.19
2022-08-17T03:38:39.198Z,94.29
2022-08-17T03:39:31.507Z,94.29
2022-08-17T03:40:55.579Z,94.65
2022-08-17T03:41:31.400Z,95.46
2022-08-17T03:42:32.981Z,95.46
2022-08-17T03:43:31.563Z,94.95
2022-08-17T03:44:31.467Z,94.55
2022-08-17T03:45:31.362Z,94.14
2022-08-17T03:46:34.997Z,93.84
2022-08-17T03:47:31.298Z,94.65
2022-08-17T03:48:31.331Z,95.36
2022-08-17T03:49:31.325Z,94.65
2022-08-17T03:50:31.314Z,94.14
2022-08-17T03:51:33.479Z,93.63
2022-08-17T03:52:31.327Z,92.93
2022-08-17T03:53:31.229Z,93.74
2022-08-17T03:54:31.234Z,95.15
2022-08-17T03:55:36.053Z,94.85
2022-08-17T03:56:31.247Z,95.56
2022-08-17T03:57:31.208Z,95.15
2022-08-17T03:58:31.227Z,95.56
2022-08-17T03:59:31.153Z,95.06
2022-08-17T04:00:31.166Z,94.55
2022-08-17T04:01:31.203Z,95.56
2022-08-17T04:02:31.131Z,94.65
2022-08-17T04:03:31.081Z,93.84
2022-08-17T04:04:31.148Z,92.83
2022-08-17T04:05:31.127Z,92.42
2022-08-17T04:06:31.138Z,93.94
2022-08-17T04:07:31.094Z,94.55
2022-08-17T04:08:31.033Z,94.65
2022-08-17T04:09:31.048Z,94.85
2022-08-17T04:10:31.050Z,94.71
2022-08-17T04:11:31.126Z,94.60
2022-08-17T04:12:31.385Z,94.71
2022-08-17T04:13:31.003Z,94.71
2022-08-17T04:14:31.081Z,94.50
2022-08-17T04:15:31.025Z,95.11
2022-08-17T04:16:30.989Z,94.50
2022-08-17T04:17:31.001Z,93.79
2022-08-17T04:18:30.992Z,93.70
2022-08-17T04:19:30.950Z,93.79
2022-08-17T04:20:31.058Z,93.59
2022-08-17T04:21:31.060Z,93.19
2022-08-17T04:22:34.255Z,92.88
2022-08-17T04:23:30.952Z,93.70
2022-08-17T04:24:30.950Z,95.01
2022-08-17T04:25:30.907Z,94.71
2022-08-17T04:26:50.587Z,93.90
2022-08-17T04:27:31.009Z,94.10
2022-08-17T04:28:31.047Z,94.91
2022-08-17T04:29:54.238Z,95.11
2022-08-17T04:30:31.083Z,94.81
2022-08-17T04:31:30.984Z,94.60
2022-08-17T04:33:04.351Z,94.81
2022-08-17T04:33:30.840Z,94.96
2022-08-17T04:34:30.926Z,94.76
2022-08-17T04:35:30.957Z,95.37
2022-08-17T04:36:30.804Z,95.37
2022-08-17T04:37:30.808Z,94.96
2022-08-17T04:38:30.866Z,94.15
2022-08-17T04:39:32.872Z,94.06
2022-08-17T04:40:30.811Z,94.96
2022-08-17T04:41:30.743Z,94.46
2022-08-17T04:42:30.755Z,93.75
2022-08-17T04:43:30.736Z,93.85
2022-08-17T04:44:37.785Z,93.44
2022-08-17T04:45:32.118Z,93.04
2022-08-17T04:46:30.679Z,92.54
2022-08-17T04:47:30.763Z,91.93
2022-08-17T04:48:36.138Z,91.73
2022-08-17T04:49:30.701Z,92.13
2022-08-17T04:50:30.669Z,92.74
2022-08-17T04:51:30.654Z,94.46
2022-08-17T04:52:43.189Z,94.56
2022-08-17T04:53:30.657Z,94.21
2022-08-17T04:54:30.584Z,93.81
2022-08-17T04:55:30.595Z,93.30
2022-08-17T04:56:30.623Z,93.40
2022-08-17T04:57:30.556Z,94.11
2022-08-17T04:58:30.546Z,93.60
2022-08-17T04:59:30.576Z,93.81
2022-08-17T05:00:30.540Z,93.91
2022-08-17T05:01:30.628Z,93.60
2022-08-17T05:02:30.563Z,93.20
2022-08-17T05:03:30.710Z,93.20
2022-08-17T05:04:34.853Z,94.01
2022-08-17T05:05:30.547Z,94.21
2022-08-17T05:06:30.545Z,94.78
2022-08-17T05:07:31.728Z,94.27
2022-08-17T05:08:30.496Z,94.67
2022-08-17T05:09:30.482Z,94.47
2022-08-17T05:10:30.416Z,94.07
2022-08-17T05:11:30.489Z,93.76
2022-08-17T05:12:30.445Z,92.65
2022-08-17T05:13:30.560Z,92.05
2022-08-17T05:14:32.880Z,92.55
2022-08-17T05:15:33.194Z,93.21
2022-08-17T05:16:30.429Z,93.21
2022-08-17T05:17:30.415Z,93.41
2022-08-17T05:18:30.367Z,94.12
2022-08-17T05:19:30.440Z,93.72
2022-08-17T05:20:30.454Z,92.91
2022-08-17T05:21:30.381Z,93.21
2022-08-17T05:22:30.403Z,93.01
2022-08-17T05:23:39.115Z,93.17
2022-08-17T05:24:40.732Z,94.38
2022-08-17T05:25:30.521Z,95.19
2022-08-17T05:26:30.352Z,95.09
2022-08-17T05:27:35.322Z,95.09
2022-08-17T05:28:30.309Z,94.84
2022-08-17T05:29:34.298Z,95.04
2022-08-17T05:30:30.240Z,94.84
2022-08-17T05:31:30.233Z,94.54
2022-08-17T05:32:37.281Z,94.09
2022-08-17T05:33:30.297Z,93.99
2022-08-17T05:34:30.254Z,93.69
2022-08-17T05:35:30.432Z,93.38
2022-08-17T05:36:41.985Z,93.04
2022-08-17T05:37:30.275Z,93.24
2022-08-17T05:38:30.221Z,92.94
2022-08-17T05:39:30.277Z,92.83
2022-08-17T05:40:32.944Z,92.63
2022-08-17T05:41:30.174Z,91.83
2022-08-17T05:42:30.178Z,91.69
2022-08-17T05:43:30.202Z,92.09
2022-08-17T05:44:30.122Z,92.09
2022-08-17T05:45:54.438Z,91.78
2022-08-17T05:46:30.196Z,91.58
2022-08-17T05:47:30.063Z,91.28
2022-08-17T05:48:39.745Z,90.28
2022-08-17T05:49:30.079Z,90.94
2022-08-17T05:50:30.298Z,90.73
2022-08-17T05:51:30.190Z,90.64
2022-08-17T05:52:30.093Z,90.44
2022-08-17T05:53:30.357Z,90.03
2022-08-17T05:54:30.023Z,89.79
2022-08-17T05:55:30.005Z,89.79
2022-08-17T05:56:30.642Z,89.18
2022-08-17T05:57:29.964Z,89.48
2022-08-17T05:58:30.026Z,89.34
2022-08-17T05:59:29.918Z,89.04
2022-08-17T06:00:31.022Z,88.34
2022-08-17T06:01:30.001Z,88.64
2022-08-17T06:02:29.973Z,88.34
2022-08-17T06:03:29.964Z,88.29
2022-08-17T06:04:29.901Z,87.79
2022-08-17T06:05:29.850Z,87.79
2022-08-17T06:06:31.224Z,87.69
2022-08-17T06:07:29.921Z,87.49
2022-08-17T06:08:29.901Z,87.39
2022-08-17T06:09:33.677Z,87.15
2022-08-17T06:10:29.826Z,86.94
2022-08-17T06:11:29.882Z,86.44
2022-08-17T06:12:29.983Z,86.65
2022-08-17T06:13:29.884Z,85.84
2022-08-17T06:14:29.900Z,85.64
2022-08-17T06:15:29.780Z,85.80
2022-08-17T06:16:34.412Z,85.39
2022-08-17T06:17:29.828Z,85.30
2022-08-17T06:18:29.810Z,85.30
2022-08-17T06:19:29.815Z,84.39
2022-08-17T06:20:29.716Z,84.55
2022-08-17T06:21:32.154Z,84.75
2022-08-17T06:22:29.698Z,85.05
2022-08-17T06:23:29.712Z,84.05
2022-08-17T06:24:29.777Z,83.71
2022-08-17T06:25:29.729Z,83.41
2022-08-17T06:26:34.517Z,83.21
2022-08-17T06:27:29.683Z,83.37
2022-08-17T06:28:29.671Z,83.07
2022-08-17T06:29:29.624Z,82.46
2022-08-17T06:30:29.597Z,82.87
2022-08-17T06:31:29.655Z,83.53
2022-08-17T06:32:29.679Z,82.03
2022-08-17T06:33:29.596Z,82.03
2022-08-17T06:34:29.584Z,81.79
2022-08-17T06:35:32.098Z,81.59
2022-08-17T06:36:29.644Z,81.68
2022-08-17T06:37:29.603Z,81.74
2022-08-17T06:38:38.284Z,80.85
2022-08-17T06:39:29.627Z,80.80
2022-08-17T06:40:29.511Z,79.60
2022-08-17T06:41:29.607Z,77.36
2022-08-17T06:42:54.789Z,77.56
2022-08-17T06:43:29.653Z,77.67
2022-08-17T06:44:43.682Z,78.13
2022-08-17T06:45:29.507Z,77.53
2022-08-17T06:46:29.451Z,76.29
2022-08-17T06:47:29.602Z,76.39
2022-08-17T06:48:29.553Z,75.59
2022-08-17T06:49:30.479Z,75.46
2022-08-17T06:50:29.503Z,75.65
2022-08-17T06:51:29.603Z,74.26
2022-08-17T06:52:45.738Z,73.82
2022-08-17T06:53:29.399Z,73.52
2022-08-17T06:54:29.367Z,74.08
2022-08-17T06:55:32.126Z,72.19
2022-08-17T06:56:53.851Z,70.26
2022-08-17T06:57:29.331Z,70.16
2022-08-17T06:58:29.768Z,69.92
2022-08-17T06:59:36.293Z,69.32
2022-08-17T07:00:30.387Z,69.53
2022-08-17T07:01:29.622Z,68.60
2022-08-17T07:02:51.586Z,68.60
2022-08-17T07:03:30.205Z,68.16
2022-08-17T07:04:29.298Z,67.86
2022-08-17T07:05:29.364Z,67.77
2022-08-17T07:06:29.468Z,67.33
2022-08-17T07:07:29.490Z,67.24
2022-08-17T07:08:32.066Z,66.94
2022-08-17T07:09:29.285Z,67.93
2022-08-17T07:10:29.219Z,66.83
2022-08-17T07:11:29.257Z,66.20
2022-08-17T07:12:29.279Z,65.81
2022-08-17T07:13:29.290Z,65.51
2022-08-17T07:14:29.186Z,66.41
2022-08-17T07:15:29.277Z,65.91
2022-08-17T07:16:29.580Z,65.41
2022-08-17T07:17:47.194Z,65.08
2022-08-17T07:18:29.496Z,65.28
2022-08-17T07:19:29.727Z,67.67
2022-08-17T07:20:30.909Z,65.28
2022-08-17T07:21:29.671Z,65.28
2022-08-17T07:22:30.793Z,65.18
2022-08-17T07:23:29.983Z,64.69
2022-08-17T07:24:29.995Z,64.48
2022-08-17T07:25:29.425Z,63.98
2022-08-17T07:26:29.205Z,63.89
2022-08-17T07:27:30.127Z,63.59
2022-08-17T07:28:29.435Z,64.48
2022-08-17T07:29:29.481Z,64.28
2022-08-17T07:30:29.758Z,64.39
2022-08-17T07:31:30.318Z,64.48
2022-08-17T07:32:29.811Z,63.98
2022-08-17T07:33:29.849Z,64.09
2022-08-17T07:34:29.575Z,64.48
2022-08-17T07:35:40.965Z,64.28
2022-08-17T07:36:30.184Z,64.98
2022-08-17T07:37:29.378Z,67.67
2022-08-17T07:38:30.215Z,66.27
2022-08-17T07:39:30.325Z,64.58
2022-08-17T07:40:28.995Z,64.39
2022-08-17T07:41:57.722Z,64.58
2022-08-17T07:42:30.321Z,64.28
2022-08-17T07:43:29.571Z,64.18
2022-08-17T07:44:28.841Z,62.10
2022-08-17T07:45:28.879Z,61.99
2022-08-17T07:46:28.970Z,61.50
2022-08-17T07:47:28.801Z,61.30
2022-08-17T07:48:28.823Z,61.40
2022-08-17T07:49:28.789Z,61.99
2022-08-17T07:50:29.054Z,61.99
2022-08-17T07:51:29.010Z,62.29
2022-08-17T07:52:48.409Z,61.80
2022-08-17T07:53:28.769Z,61.69
2022-08-17T07:54:28.738Z,62.10
2022-08-17T07:55:28.691Z,62.79
2022-08-17T07:56:28.915Z,63.19
2022-08-17T07:57:30.074Z,62.49
2022-08-17T07:58:28.741Z,62.40
2022-08-17T07:59:33.752Z,62.49
2022-08-17T08:00:32.073Z,61.99
2022-08-17T08:01:39.358Z,61.99
2022-08-17T08:02:32.896Z,62.10
2022-08-17T08:03:28.731Z,62.49
2022-08-17T08:04:58.853Z,62.40
2022-08-17T08:05:49.140Z,63.29
2022-08-17T08:06:28.821Z,63.36
2022-08-17T08:07:29.472Z,63.26
2022-08-17T08:08:28.649Z,63.39
2022-08-17T08:09:28.655Z,63.79
2022-08-17T08:10:28.565Z,63.59
2022-08-17T08:11:28.574Z,64.58
2022-08-17T08:12:30.561Z,64.28
2022-08-17T08:13:28.623Z,65.18
2022-08-17T08:14:28.912Z,65.38
2022-08-17T08:15:28.631Z,64.18
2022-08-17T08:16:28.506Z,63.98
2022-08-17T08:17:28.592Z,64.28
2022-08-17T08:18:54.818Z,64.09
2022-08-17T08:19:28.867Z,63.56
2022-08-17T08:20:53.207Z,62.86
2022-08-17T08:21:28.608Z,63.16
2022-08-17T08:22:28.532Z,63.26
2022-08-17T08:23:28.495Z,64.75
2022-08-17T08:24:31.093Z,63.76
2022-08-17T08:25:28.695Z,64.03
2022-08-17T08:26:28.568Z,64.62
2022-08-17T08:27:28.443Z,63.73
2022-08-17T08:28:28.420Z,63.92
2022-08-17T08:29:28.422Z,61.34
2022-08-17T08:30:28.334Z,61.11
2022-08-17T08:31:28.360Z,60.22
2022-08-17T08:32:28.315Z,60.12
2022-08-17T08:33:28.328Z,59.72
2022-08-17T08:35:00.688Z,59.59
2022-08-17T08:35:28.311Z,59.49
2022-08-17T08:37:02.142Z,58.50
2022-08-17T08:37:35.557Z,58.57
2022-08-17T08:38:28.329Z,58.47
2022-08-17T08:39:28.327Z,58.17
2022-08-17T08:40:28.286Z,58.27
2022-08-17T08:41:28.245Z,58.15
2022-08-17T08:42:28.265Z,58.25
2022-08-17T08:43:28.234Z,57.55
2022-08-17T08:45:00.998Z,58.12
2022-08-17T08:45:28.251Z,58.02
2022-08-17T08:46:28.233Z,59.01
2022-08-17T08:47:28.635Z,58.98
2022-08-17T08:48:53.692Z,58.06
2022-08-17T08:49:59.189Z,56.08
2022-08-17T08:50:37.599Z,55.78
2022-08-17T08:51:28.512Z,55.88
2022-08-17T08:52:28.233Z,56.08
2022-08-17T08:53:28.284Z,55.88
2022-08-17T08:54:28.188Z,55.66
2022-08-17T08:55:28.290Z,56.25
2022-08-17T08:56:28.145Z,55.06
2022-08-17T08:57:33.658Z,55.06
2022-08-17T08:58:31.943Z,54.96
2022-08-17T08:59:28.128Z,54.57
2022-08-17T09:00:28.127Z,54.96
2022-08-17T09:01:28.102Z,54.47
2022-08-17T09:02:28.029Z,54.86
2022-08-17T09:03:42.749Z,54.86
2022-08-17T09:04:28.016Z,55.46
2022-08-17T09:05:28.001Z,54.67
2022-08-17T09:06:35.621Z,54.89
2022-08-17T09:07:28.022Z,54.99
2022-08-17T09:08:27.979Z,56.68
2022-08-17T09:09:28.043Z,55.29
2022-08-17T09:10:28.062Z,55.29
2022-08-17T09:11:28.041Z,55.68
2022-08-17T09:12:28.039Z,56.38
2022-08-17T09:13:28.025Z,58.06
2022-08-17T09:14:28.486Z,58.36
2022-08-17T09:15:27.968Z,56.51
2022-08-17T09:16:27.875Z,56.80
2022-08-17T09:17:27.902Z,57.40
2022-08-17T09:19:03.191Z,57.50
2022-08-17T09:19:27.843Z,56.30
2022-08-17T09:20:28.769Z,56.21
2022-08-17T09:21:27.831Z,56.80
2022-08-17T09:22:27.822Z,56.30
2022-08-17T09:23:27.832Z,56.70
2022-08-17T09:24:27.783Z,56.80
2022-08-17T09:25:27.778Z,56.60
2022-08-17T09:26:27.797Z,56.70
2022-08-17T09:27:27.759Z,56.70
2022-08-17T09:28:27.940Z,57.29
2022-08-17T09:29:27.752Z,58.59
2022-08-17T09:30:27.779Z,59.18
2022-08-17T09:31:32.696Z,59.58
2022-08-17T09:32:27.740Z,59.88
2022-08-17T09:33:27.725Z,58.98
2022-08-17T09:34:32.024Z,58.19
2022-08-17T09:35:33.788Z,57.29
2022-08-17T09:36:27.735Z,57.89
2022-08-17T09:37:27.805Z,57.89
2022-08-17T09:38:31.874Z,57.40
2022-08-17T09:39:27.841Z,56.21
2022-08-17T09:40:27.669Z,56.51
2022-08-17T09:41:27.686Z,56.80
2022-08-17T09:42:27.694Z,57.00
2022-08-17T09:43:27.647Z,56.30
2022-08-17T09:44:27.618Z,56.70
2022-08-17T09:45:27.649Z,56.63
2022-08-17T09:46:27.663Z,56.63
2022-08-17T09:47:27.749Z,58.02
2022-08-17T09:48:27.823Z,58.51
2022-08-17T09:49:27.638Z,59.80
2022-08-17T09:51:01.649Z,58.61
2022-08-17T09:51:27.892Z,59.51
2022-08-17T09:52:27.539Z,59.70
2022-08-17T09:53:31.651Z,58.72
2022-08-17T09:54:44.411Z,58.51
2022-08-17T09:55:27.549Z,58.22
2022-08-17T09:56:27.543Z,59.11
2022-08-17T09:57:30.709Z,59.61
2022-08-17T09:58:29.219Z,57.92
2022-08-17T09:59:27.479Z,57.82
2022-08-17T10:00:27.527Z,57.99
2022-08-17T10:01:27.507Z,57.79
2022-08-17T10:02:27.482Z,57.59
2022-08-17T10:03:27.519Z,57.89
2022-08-17T10:04:29.657Z,57.20
2022-08-17T10:05:27.470Z,57.46
2022-08-17T10:06:27.904Z,57.57
2022-08-17T10:07:27.423Z,57.76
2022-08-17T10:08:28.306Z,56.77
2022-08-17T10:09:27.416Z,56.87
2022-08-17T10:10:27.342Z,56.97
2022-08-17T10:11:33.727Z,57.57
2022-08-17T10:12:30.047Z,58.56
2022-08-17T10:13:27.417Z,58.86
2022-08-17T10:14:37.712Z,58.65
2022-08-17T10:15:27.431Z,58.65
2022-08-17T10:16:27.325Z,58.16
2022-08-17T10:17:27.407Z,58.06
2022-08-17T10:18:31.829Z,57.57
2022-08-17T10:19:27.385Z,58.75
2022-08-17T10:20:27.270Z,58.95
2022-08-17T10:21:27.242Z,57.67
2022-08-17T10:22:34.629Z,57.86
2022-08-17T10:23:27.277Z,56.28
2022-08-17T10:24:27.333Z,56.97
2022-08-17T10:25:42.535Z,57.46
2022-08-17T10:26:27.273Z,57.17
2022-08-17T10:27:27.223Z,57.86
2022-08-17T10:28:29.803Z,57.67
2022-08-17T10:29:28.820Z,57.37
2022-08-17T10:30:27.349Z,58.19
2022-08-17T10:31:35.782Z,57.40
2022-08-17T10:32:27.136Z,57.29
2022-08-17T10:33:27.198Z,57.67
2022-08-17T10:34:27.114Z,58.39
2022-08-17T10:35:27.258Z,58.06
2022-08-17T10:36:27.070Z,57.50
2022-08-17T10:37:27.128Z,57.29
2022-08-17T10:38:27.070Z,57.50
2022-08-17T10:39:27.141Z,57.27
2022-08-17T10:40:27.096Z,57.86
2022-08-17T10:41:27.047Z,57.27
2022-08-17T10:42:30.430Z,56.38
2022-08-17T10:43:26.997Z,56.87
2022-08-17T10:44:39.648Z,57.37
2022-08-17T10:45:26.981Z,57.07
2022-08-17T10:46:30.340Z,56.77
2022-08-17T10:47:26.949Z,57.17
2022-08-17T10:48:26.933Z,56.97
2022-08-17T10:49:26.925Z,57.76
2022-08-17T10:50:26.961Z,56.87
2022-08-17T10:51:26.926Z,57.17
2022-08-17T10:52:26.946Z,57.07
2022-08-17T10:53:26.902Z,57.00
2022-08-17T10:54:26.872Z,57.59
2022-08-17T10:55:26.887Z,58.29
2022-08-17T10:56:26.853Z,57.20
2022-08-17T10:57:26.846Z,57.99
2022-08-17T10:58:27.137Z,57.99
2022-08-17T10:59:26.845Z,58.48
2022-08-17T11:00:27.734Z,58.69
2022-08-17T11:01:26.884Z,58.78
2022-08-17T11:02:26.806Z,59.48
2022-08-17T11:03:26.804Z,58.98
2022-08-17T11:04:26.769Z,58.98
2022-08-17T11:05:26.784Z,58.19
2022-08-17T11:06:26.803Z,58.19
2022-08-17T11:07:26.785Z,58.29
2022-08-17T11:08:26.831Z,58.42
2022-08-17T11:09:26.736Z,58.78
2022-08-17T11:10:26.754Z,59.28
2022-08-17T11:11:26.708Z,59.78
2022-08-17T11:12:26.709Z,58.98
2022-08-17T11:13:26.753Z,59.51
2022-08-17T11:14:26.656Z,60.17
2022-08-17T11:15:26.669Z,59.38
2022-08-17T11:16:26.686Z,59.67
2022-08-17T11:17:26.656Z,60.10
2022-08-17T11:18:26.645Z,60.00
2022-08-17T11:19:26.637Z,59.61
2022-08-17T11:20:26.607Z,60.10
2022-08-17T11:21:26.593Z,60.40
2022-08-17T11:22:31.301Z,60.40
2022-08-17T11:23:26.630Z,59.80
2022-08-17T11:24:26.573Z,59.11
2022-08-17T11:25:26.552Z,59.61
2022-08-17T11:26:26.596Z,60.30
2022-08-17T11:27:26.562Z,60.20
2022-08-17T11:28:26.550Z,59.80
2022-08-17T11:29:26.516Z,59.51
2022-08-17T11:30:26.639Z,59.53
2022-08-17T11:31:37.952Z,59.74
2022-08-17T11:32:26.495Z,59.83
2022-08-17T11:33:26.516Z,59.74
2022-08-17T11:34:26.678Z,60.13
2022-08-17T11:35:26.797Z,61.12
2022-08-17T11:36:26.452Z,60.72
2022-08-17T11:37:26.440Z,60.63
2022-08-17T11:38:26.425Z,61.02
2022-08-17T11:39:26.525Z,61.12
2022-08-17T11:40:26.410Z,61.65
2022-08-17T11:41:26.402Z,61.35
2022-08-17T11:42:26.428Z,61.15
2022-08-17T11:43:26.410Z,61.65
2022-08-17T11:44:26.431Z,62.15
2022-08-17T11:45:31.928Z,62.15
2022-08-17T11:46:26.365Z,62.45
2022-08-17T11:47:26.379Z,62.74
2022-08-17T11:48:28.777Z,63.13
2022-08-17T11:49:26.336Z,63.13
2022-08-17T11:50:28.003Z,63.13
2022-08-17T11:51:26.284Z,63.83
2022-08-17T11:52:26.301Z,63.34
2022-08-17T11:53:26.280Z,63.93
2022-08-17T11:54:34.666Z,63.27
2022-08-17T11:55:35.400Z,62.97
2022-08-17T11:56:26.293Z,62.67
2022-08-17T11:57:26.301Z,62.87
2022-08-17T11:58:26.274Z,63.27
2022-08-17T11:59:26.282Z,63.46
2022-08-17T12:00:26.215Z,63.46
2022-08-17T12:01:26.201Z,63.86
2022-08-17T12:02:26.222Z,63.17
2022-08-17T12:03:26.249Z,63.57
2022-08-17T12:04:26.382Z,63.96
2022-08-17T12:05:26.192Z,64.06
2022-08-17T12:06:29.615Z,64.29
2022-08-17T12:07:26.268Z,64.49
2022-08-17T12:08:26.242Z,64.00
2022-08-17T12:09:26.202Z,64.09
2022-08-17T12:10:26.374Z,64.29
2022-08-17T12:11:56.346Z,64.49
2022-08-17T12:12:26.197Z,64.98
2022-08-17T12:13:34.613Z,64.39
2022-08-17T12:14:45.075Z,64.69
2022-08-17T12:15:26.120Z,64.98
2022-08-17T12:16:26.210Z,65.09
2022-08-17T12:17:40.658Z,65.09
2022-08-17T12:18:26.127Z,65.25
2022-08-17T12:19:26.220Z,64.95
2022-08-17T12:20:26.178Z,64.76
2022-08-17T12:21:26.076Z,64.16
2022-08-17T12:22:26.121Z,63.96
2022-08-17T12:23:26.347Z,64.06
2022-08-17T12:24:26.066Z,63.76
2022-08-17T12:25:26.029Z,63.96
2022-08-17T12:26:26.094Z,62.47
2022-08-17T12:28:04.349Z,62.67
2022-08-17T12:28:26.107Z,63.57
2022-08-17T12:29:35.702Z,63.67
2022-08-17T12:30:25.998Z,63.57
2022-08-17T12:31:25.995Z,63.67
2022-08-17T12:32:25.947Z,63.37
2022-08-17T12:33:28.184Z,63.67
2022-08-17T12:34:25.970Z,63.07
2022-08-17T12:35:25.851Z,63.67
2022-08-17T12:36:25.878Z,63.27
2022-08-17T12:37:25.832Z,63.37
2022-08-17T12:38:32.294Z,62.97
2022-08-17T12:39:25.970Z,63.49
2022-08-17T12:40:25.903Z,63.79
2022-08-17T12:41:25.959Z,64.59
2022-08-17T12:42:25.984Z,64.39
2022-08-17T12:43:25.893Z,65.28
2022-08-17T12:44:25.800Z,64.98
2022-08-17T12:45:25.978Z,64.89
2022-08-17T12:46:25.925Z,65.31
2022-08-17T12:47:26.140Z,65.12
2022-08-17T12:48:25.956Z,65.42
2022-08-17T12:49:26.128Z,64.62
2022-08-17T12:50:28.807Z,64.92
2022-08-17T12:51:25.812Z,65.02
2022-08-17T12:52:25.791Z,65.25